sensor_id;sensor_type;location;lat;lon;timestamp;P1;durP1;ratioP1;P2;durP2;ratioP2
47958;SDS011;33718;50.910;-1.514;2023-07-31T00:00:07;10.68;;;3.42;;
47958;SDS011;33718;50.910;-1.514;2023-07-31T00:02:15;14.48;;;3.60;;
47958;SDS011;33718;50.910;-1.514;2023-07-31T00:04:16;15.15;;;3.35;;
47958;SDS011;33718;50.910;-1.514;2023-07-31T00:06:18;11.05;;;3.45;;
47958;SDS011;33718;50.910;-1.514;2023-07-31T00:08:22;15.35;;;4.35;;
47958;SDS011;33718;50.910;-1.514;2023-07-31T00:10:24;9.18;;;3.40;;
47958;SDS011;33718;50.910;-1.514;2023-07-31T00:12:28;12.73;;;3.80;;
47958;SDS011;33718;50.910;-1.514;2023-07-31T00:14:30;14.20;;;3.55;;
47958;SDS011;33718;50.910;-1.514;2023-07-31T00:16:34;12.07;;;3.90;;
47958;SDS011;33718;50.910;-1.514;2023-07-31T00:18:39;12.68;;;4.40;;
47958;SDS011;33718;50.910;-1.514;2023-07-31T00:20:43;12.57;;;4.25;;
47958;SDS011;33718;50.910;-1.514;2023-07-31T00:22:45;16.10;;;4.03;;
47958;SDS011;33718;50.910;-1.514;2023-07-31T00:24:46;15.20;;;4.20;;
47958;SDS011;33718;50.910;-1.514;2023-07-31T00:26:51;20.58;;;3.95;;
47958;SDS011;33718;50.910;-1.514;2023-07-31T00:28:53;15.38;;;4.95;;
47958;SDS011;33718;50.910;-1.514;2023-07-31T00:30:54;17.90;;;4.45;;
47958;SDS011;33718;50.910;-1.514;2023-07-31T00:32:59;15.57;;;4.35;;
47958;SDS011;33718;50.910;-1.514;2023-07-31T00:35:03;17.98;;;4.00;;
47958;SDS011;33718;50.910;-1.514;2023-07-31T00:37:08;18.65;;;4.28;;
47958;SDS011;33718;50.910;-1.514;2023-07-31T00:39:12;19.52;;;5.75;;
47958;SDS011;33718;50.910;-1.514;2023-07-31T00:41:16;26.30;;;5.72;;
47958;SDS011;33718;50.910;-1.514;2023-07-31T00:43:21;20.30;;;6.30;;
47958;SDS011;33718;50.910;-1.514;2023-07-31T00:45:22;19.10;;;5.55;;
47958;SDS011;33718;50.910;-1.514;2023-07-31T00:47:43;23.58;;;6.40;;
47958;SDS011;33718;50.910;-1.514;2023-07-31T00:49:45;17.77;;;5.57;;
47958;SDS011;33718;50.910;-1.514;2023-07-31T00:51:47;25.63;;;6.70;;
47958;SDS011;33718;50.910;-1.514;2023-07-31T00:53:52;18.25;;;6.03;;
47958;SDS011;33718;50.910;-1.514;2023-07-31T00:55:55;27.63;;;6.07;;
47958;SDS011;33718;50.910;-1.514;2023-07-31T00:58:00;24.48;;;5.93;;
47958;SDS011;33718;50.910;-1.514;2023-07-31T01:00:01;25.27;;;5.97;;
47958;SDS011;33718;50.910;-1.514;2023-07-31T01:02:07;27.50;;;6.60;;
47958;SDS011;33718;50.910;-1.514;2023-07-31T01:04:11;26.52;;;5.95;;
47958;SDS011;33718;50.910;-1.514;2023-07-31T01:08:24;22.98;;;5.88;;
47958;SDS011;33718;50.910;-1.514;2023-07-31T01:10:37;24.13;;;6.50;;
47958;SDS011;33718;50.910;-1.514;2023-07-31T01:12:42;16.67;;;5.47;;
47958;SDS011;33718;50.910;-1.514;2023-07-31T01:15:08;25.90;;;5.30;;
47958;SDS011;33718;50.910;-1.514;2023-07-31T01:17:31;23.77;;;5.07;;
47958;SDS011;33718;50.910;-1.514;2023-07-31T01:19:35;20.25;;;4.82;;
47958;SDS011;33718;50.910;-1.514;2023-07-31T01:22:27;15.55;;;4.85;;
47958;SDS011;33718;50.910;-1.514;2023-07-31T01:24:28;23.05;;;4.00;;
47958;SDS011;33718;50.910;-1.514;2023-07-31T01:26:38;17.60;;;4.35;;
47958;SDS011;33718;50.910;-1.514;2023-07-31T01:28:47;19.83;;;4.63;;
47958;SDS011;33718;50.910;-1.514;2023-07-31T01:30:56;16.13;;;3.90;;
47958;SDS011;33718;50.910;-1.514;2023-07-31T01:33:03;14.20;;;3.45;;
47958;SDS011;33718;50.910;-1.514;2023-07-31T01:35:20;14.75;;;3.35;;
47958;SDS011;33718;50.910;-1.514;2023-07-31T01:37:40;15.02;;;3.22;;
47958;SDS011;33718;50.910;-1.514;2023-07-31T01:39:58;12.48;;;4.20;;
47958;SDS011;33718;50.910;-1.514;2023-07-31T01:42:16;14.02;;;4.05;;
47958;SDS011;33718;50.910;-1.514;2023-07-31T01:44:30;14.55;;;3.85;;
47958;SDS011;33718;50.910;-1.514;2023-07-31T01:46:44;11.07;;;3.78;;
47958;SDS011;33718;50.910;-1.514;2023-07-31T01:48:57;12.40;;;3.35;;
47958;SDS011;33718;50.910;-1.514;2023-07-31T01:51:11;15.43;;;3.13;;
47958;SDS011;33718;50.910;-1.514;2023-07-31T01:53:24;14.93;;;4.40;;
47958;SDS011;33718;50.910;-1.514;2023-07-31T01:55:41;12.82;;;3.15;;
47958;SDS011;33718;50.910;-1.514;2023-07-31T01:57:46;18.63;;;3.80;;
47958;SDS011;33718;50.910;-1.514;2023-07-31T02:00:05;19.08;;;4.28;;
47958;SDS011;33718;50.910;-1.514;2023-07-31T02:02:31;13.57;;;3.50;;
47958;SDS011;33718;50.910;-1.514;2023-07-31T02:05:03;10.82;;;3.40;;
47958;SDS011;33718;50.910;-1.514;2023-07-31T02:07:16;10.77;;;2.47;;
47958;SDS011;33718;50.910;-1.514;2023-07-31T02:09:27;12.68;;;3.70;;
47958;SDS011;33718;50.910;-1.514;2023-07-31T02:11:36;19.70;;;3.15;;
47958;SDS011;33718;50.910;-1.514;2023-07-31T02:13:56;9.68;;;3.33;;
47958;SDS011;33718;50.910;-1.514;2023-07-31T02:16:00;13.68;;;3.00;;
47958;SDS011;33718;50.910;-1.514;2023-07-31T02:18:02;8.02;;;3.00;;
47958;SDS011;33718;50.910;-1.514;2023-07-31T02:20:04;12.32;;;2.67;;
47958;SDS011;33718;50.910;-1.514;2023-07-31T02:22:06;9.73;;;2.90;;
47958;SDS011;33718;50.910;-1.514;2023-07-31T02:24:08;8.50;;;2.30;;
47958;SDS011;33718;50.910;-1.514;2023-07-31T02:26:10;8.27;;;3.10;;
47958;SDS011;33718;50.910;-1.514;2023-07-31T02:28:11;12.13;;;3.13;;
47958;SDS011;33718;50.910;-1.514;2023-07-31T02:30:16;12.00;;;2.53;;
47958;SDS011;33718;50.910;-1.514;2023-07-31T02:32:17;10.98;;;3.33;;
47958;SDS011;33718;50.910;-1.514;2023-07-31T02:34:19;7.28;;;2.40;;
47958;SDS011;33718;50.910;-1.514;2023-07-31T02:36:39;14.52;;;4.53;;
47958;SDS011;33718;50.910;-1.514;2023-07-31T02:38:41;8.90;;;2.58;;
47958;SDS011;33718;50.910;-1.514;2023-07-31T02:40:46;10.50;;;2.85;;
47958;SDS011;33718;50.910;-1.514;2023-07-31T02:42:50;9.48;;;2.67;;
47958;SDS011;33718;50.910;-1.514;2023-07-31T02:45:10;10.70;;;2.65;;
47958;SDS011;33718;50.910;-1.514;2023-07-31T02:47:12;10.63;;;2.35;;
47958;SDS011;33718;50.910;-1.514;2023-07-31T02:49:16;6.90;;;2.80;;
47958;SDS011;33718;50.910;-1.514;2023-07-31T02:51:18;10.20;;;2.95;;
47958;SDS011;33718;50.910;-1.514;2023-07-31T02:53:22;8.98;;;2.78;;
47958;SDS011;33718;50.910;-1.514;2023-07-31T02:55:43;14.13;;;2.65;;
47958;SDS011;33718;50.910;-1.514;2023-07-31T02:57:47;16.45;;;2.63;;
47958;SDS011;33718;50.910;-1.514;2023-07-31T02:59:48;16.50;;;2.60;;
47958;SDS011;33718;50.910;-1.514;2023-07-31T03:01:53;14.48;;;3.10;;
47958;SDS011;33718;50.910;-1.514;2023-07-31T03:03:54;9.13;;;2.40;;
47958;SDS011;33718;50.910;-1.514;2023-07-31T03:05:59;8.13;;;2.78;;
47958;SDS011;33718;50.910;-1.514;2023-07-31T03:08:00;12.13;;;2.45;;
47958;SDS011;33718;50.910;-1.514;2023-07-31T03:10:03;12.45;;;3.20;;
47958;SDS011;33718;50.910;-1.514;2023-07-31T03:12:07;11.85;;;2.70;;
47958;SDS011;33718;50.910;-1.514;2023-07-31T03:14:18;13.88;;;3.03;;
47958;SDS011;33718;50.910;-1.514;2023-07-31T03:16:20;10.70;;;3.40;;
47958;SDS011;33718;50.910;-1.514;2023-07-31T03:18:24;18.25;;;4.30;;
47958;SDS011;33718;50.910;-1.514;2023-07-31T03:20:26;16.52;;;3.47;;
47958;SDS011;33718;50.910;-1.514;2023-07-31T03:22:30;18.95;;;4.20;;
47958;SDS011;33718;50.910;-1.514;2023-07-31T03:24:32;24.50;;;6.25;;
47958;SDS011;33718;50.910;-1.514;2023-07-31T03:26:33;16.92;;;3.75;;
47958;SDS011;33718;50.910;-1.514;2023-07-31T03:28:38;16.35;;;4.65;;
47958;SDS011;33718;50.910;-1.514;2023-07-31T03:30:42;16.02;;;4.13;;
47958;SDS011;33718;50.910;-1.514;2023-07-31T03:32:44;22.10;;;4.40;;
47958;SDS011;33718;50.910;-1.514;2023-07-31T03:34:49;14.00;;;3.67;;
47958;SDS011;33718;50.910;-1.514;2023-07-31T03:36:53;16.63;;;4.05;;
47958;SDS011;33718;50.910;-1.514;2023-07-31T03:38:55;19.15;;;5.03;;
47958;SDS011;33718;50.910;-1.514;2023-07-31T03:40:59;22.80;;;4.72;;
47958;SDS011;33718;50.910;-1.514;2023-07-31T03:43:19;21.08;;;5.07;;
47958;SDS011;33718;50.910;-1.514;2023-07-31T03:45:21;15.57;;;4.63;;
47958;SDS011;33718;50.910;-1.514;2023-07-31T03:47:26;17.15;;;4.53;;
47958;SDS011;33718;50.910;-1.514;2023-07-31T03:49:30;18.45;;;4.55;;
47958;SDS011;33718;50.910;-1.514;2023-07-31T03:51:50;18.27;;;4.00;;
47958;SDS011;33718;50.910;-1.514;2023-07-31T03:53:52;24.27;;;4.53;;
47958;SDS011;33718;50.910;-1.514;2023-07-31T03:55:56;21.23;;;4.60;;
47958;SDS011;33718;50.910;-1.514;2023-07-31T03:57:58;13.90;;;4.35;;
47958;SDS011;33718;50.910;-1.514;2023-07-31T04:00:04;21.95;;;4.80;;
47958;SDS011;33718;50.910;-1.514;2023-07-31T04:02:09;22.63;;;4.32;;
47958;SDS011;33718;50.910;-1.514;2023-07-31T04:04:10;14.43;;;4.10;;
47958;SDS011;33718;50.910;-1.514;2023-07-31T04:06:12;13.57;;;3.67;;
47958;SDS011;33718;50.910;-1.514;2023-07-31T04:08:14;22.92;;;3.97;;
47958;SDS011;33718;50.910;-1.514;2023-07-31T04:10:21;18.27;;;5.47;;
47958;SDS011;33718;50.910;-1.514;2023-07-31T04:12:22;15.18;;;3.72;;
47958;SDS011;33718;50.910;-1.514;2023-07-31T04:14:24;22.08;;;4.22;;
47958;SDS011;33718;50.910;-1.514;2023-07-31T04:16:26;12.07;;;3.00;;
47958;SDS011;33718;50.910;-1.514;2023-07-31T04:18:30;17.40;;;3.78;;
47958;SDS011;33718;50.910;-1.514;2023-07-31T04:20:34;16.23;;;3.28;;
47958;SDS011;33718;50.910;-1.514;2023-07-31T04:22:36;17.23;;;4.25;;
47958;SDS011;33718;50.910;-1.514;2023-07-31T04:24:40;13.75;;;2.83;;
47958;SDS011;33718;50.910;-1.514;2023-07-31T04:26:42;18.30;;;3.20;;
47958;SDS011;33718;50.910;-1.514;2023-07-31T04:28:44;11.52;;;3.08;;
47958;SDS011;33718;50.910;-1.514;2023-07-31T04:30:48;15.02;;;4.13;;
47958;SDS011;33718;50.910;-1.514;2023-07-31T04:32:51;15.33;;;2.70;;
47958;SDS011;33718;50.910;-1.514;2023-07-31T04:34:53;13.07;;;3.58;;
47958;SDS011;33718;50.910;-1.514;2023-07-31T04:36:54;15.70;;;3.10;;
47958;SDS011;33718;50.910;-1.514;2023-07-31T04:39:19;18.27;;;3.15;;
47958;SDS011;33718;50.910;-1.514;2023-07-31T04:41:35;14.05;;;2.78;;
47958;SDS011;33718;50.910;-1.514;2023-07-31T04:43:51;11.82;;;2.63;;
47958;SDS011;33718;50.910;-1.514;2023-07-31T04:46:06;12.88;;;3.35;;
47958;SDS011;33718;50.910;-1.514;2023-07-31T04:48:21;19.98;;;3.65;;
47958;SDS011;33718;50.910;-1.514;2023-07-31T04:50:35;15.63;;;3.92;;
47958;SDS011;33718;50.910;-1.514;2023-07-31T04:53:04;12.68;;;2.53;;
47958;SDS011;33718;50.910;-1.514;2023-07-31T04:55:16;14.15;;;3.45;;
47958;SDS011;33718;50.910;-1.514;2023-07-31T04:57:26;7.55;;;2.55;;
47958;SDS011;33718;50.910;-1.514;2023-07-31T04:59:49;9.30;;;2.58;;
47958;SDS011;33718;50.910;-1.514;2023-07-31T05:01:57;17.42;;;2.88;;
47958;SDS011;33718;50.910;-1.514;2023-07-31T05:04:08;13.15;;;3.25;;
47958;SDS011;33718;50.910;-1.514;2023-07-31T05:06:19;19.02;;;4.85;;
47958;SDS011;33718;50.910;-1.514;2023-07-31T05:08:30;18.48;;;3.22;;
47958;SDS011;33718;50.910;-1.514;2023-07-31T05:10:49;18.33;;;5.32;;
47958;SDS011;33718;50.910;-1.514;2023-07-31T05:13:01;20.30;;;4.05;;
47958;SDS011;33718;50.910;-1.514;2023-07-31T05:17:26;14.15;;;3.53;;
47958;SDS011;33718;50.910;-1.514;2023-07-31T05:19:31;22.35;;;3.80;;
47958;SDS011;33718;50.910;-1.514;2023-07-31T05:21:32;13.07;;;3.28;;
47958;SDS011;33718;50.910;-1.514;2023-07-31T05:23:34;13.63;;;3.58;;
47958;SDS011;33718;50.910;-1.514;2023-07-31T05:25:36;15.32;;;3.92;;
47958;SDS011;33718;50.910;-1.514;2023-07-31T05:27:40;17.10;;;3.25;;
47958;SDS011;33718;50.910;-1.514;2023-07-31T05:29:41;14.88;;;3.20;;
47958;SDS011;33718;50.910;-1.514;2023-07-31T05:31:43;13.98;;;3.83;;
47958;SDS011;33718;50.910;-1.514;2023-07-31T05:33:45;17.38;;;2.92;;
47958;SDS011;33718;50.910;-1.514;2023-07-31T05:35:46;11.02;;;4.72;;
47958;SDS011;33718;50.910;-1.514;2023-07-31T05:37:54;11.40;;;2.50;;
47958;SDS011;33718;50.910;-1.514;2023-07-31T05:39:58;16.85;;;3.15;;
47958;SDS011;33718;50.910;-1.514;2023-07-31T05:42:05;11.32;;;3.05;;
47958;SDS011;33718;50.910;-1.514;2023-07-31T05:44:07;9.82;;;3.13;;
47958;SDS011;33718;50.910;-1.514;2023-07-31T05:46:09;13.98;;;3.00;;
47958;SDS011;33718;50.910;-1.514;2023-07-31T05:48:16;12.57;;;2.78;;
47958;SDS011;33718;50.910;-1.514;2023-07-31T05:50:18;13.55;;;3.05;;
47958;SDS011;33718;50.910;-1.514;2023-07-31T05:52:23;13.18;;;3.90;;
47958;SDS011;33718;50.910;-1.514;2023-07-31T05:54:24;14.48;;;3.20;;
47958;SDS011;33718;50.910;-1.514;2023-07-31T05:56:29;16.48;;;3.58;;
47958;SDS011;33718;50.910;-1.514;2023-07-31T05:58:30;11.80;;;2.97;;
47958;SDS011;33718;50.910;-1.514;2023-07-31T06:00:32;7.15;;;2.85;;
47958;SDS011;33718;50.910;-1.514;2023-07-31T06:02:36;9.35;;;2.63;;
47958;SDS011;33718;50.910;-1.514;2023-07-31T06:04:41;13.45;;;3.13;;
47958;SDS011;33718;50.910;-1.514;2023-07-31T06:06:45;13.00;;;2.38;;
47958;SDS011;33718;50.910;-1.514;2023-07-31T06:08:47;10.73;;;2.58;;
47958;SDS011;33718;50.910;-1.514;2023-07-31T06:10:48;9.93;;;2.40;;
47958;SDS011;33718;50.910;-1.514;2023-07-31T06:12:50;9.18;;;2.20;;
47958;SDS011;33718;50.910;-1.514;2023-07-31T06:14:54;11.63;;;2.13;;
47958;SDS011;33718;50.910;-1.514;2023-07-31T06:16:56;12.82;;;2.40;;
47958;SDS011;33718;50.910;-1.514;2023-07-31T06:19:00;12.23;;;3.05;;
47958;SDS011;33718;50.910;-1.514;2023-07-31T06:21:02;6.18;;;1.92;;
47958;SDS011;33718;50.910;-1.514;2023-07-31T06:23:04;12.13;;;3.72;;
47958;SDS011;33718;50.910;-1.514;2023-07-31T06:25:08;9.43;;;2.35;;
47958;SDS011;33718;50.910;-1.514;2023-07-31T06:27:13;9.65;;;1.63;;
47958;SDS011;33718;50.910;-1.514;2023-07-31T06:29:15;4.80;;;1.55;;
47958;SDS011;33718;50.910;-1.514;2023-07-31T06:31:17;4.07;;;1.30;;
47958;SDS011;33718;50.910;-1.514;2023-07-31T06:33:24;4.75;;;1.50;;
47958;SDS011;33718;50.910;-1.514;2023-07-31T06:35:26;4.95;;;1.30;;
47958;SDS011;33718;50.910;-1.514;2023-07-31T06:37:27;6.97;;;0.90;;
47958;SDS011;33718;50.910;-1.514;2023-07-31T06:39:32;4.15;;;0.88;;
47958;SDS011;33718;50.910;-1.514;2023-07-31T06:41:36;4.00;;;0.95;;
47958;SDS011;33718;50.910;-1.514;2023-07-31T06:43:40;4.22;;;1.13;;
47958;SDS011;33718;50.910;-1.514;2023-07-31T06:45:45;2.05;;;0.90;;
47958;SDS011;33718;50.910;-1.514;2023-07-31T06:48:06;1.45;;;0.68;;
47958;SDS011;33718;50.910;-1.514;2023-07-31T06:50:08;2.05;;;0.80;;
47958;SDS011;33718;50.910;-1.514;2023-07-31T06:52:12;5.30;;;0.88;;
47958;SDS011;33718;50.910;-1.514;2023-07-31T06:54:14;2.22;;;0.80;;
47958;SDS011;33718;50.910;-1.514;2023-07-31T06:56:15;2.80;;;1.08;;
47958;SDS011;33718;50.910;-1.514;2023-07-31T06:58:35;2.53;;;1.02;;
47958;SDS011;33718;50.910;-1.514;2023-07-31T07:00:37;4.28;;;0.68;;
47958;SDS011;33718;50.910;-1.514;2023-07-31T07:02:41;5.68;;;1.15;;
47958;SDS011;33718;50.910;-1.514;2023-07-31T07:04:45;5.05;;;1.00;;
47958;SDS011;33718;50.910;-1.514;2023-07-31T07:06:47;3.30;;;1.25;;
47958;SDS011;33718;50.910;-1.514;2023-07-31T07:08:51;7.43;;;0.80;;
47958;SDS011;33718;50.910;-1.514;2023-07-31T07:10:53;5.10;;;0.80;;
47958;SDS011;33718;50.910;-1.514;2023-07-31T07:12:58;4.15;;;0.85;;
47958;SDS011;33718;50.910;-1.514;2023-07-31T07:15:02;5.00;;;0.80;;
47958;SDS011;33718;50.910;-1.514;2023-07-31T07:17:23;7.30;;;0.82;;
47958;SDS011;33718;50.910;-1.514;2023-07-31T07:19:27;3.33;;;0.70;;
47958;SDS011;33718;50.910;-1.514;2023-07-31T07:21:29;2.60;;;0.52;;
47958;SDS011;33718;50.910;-1.514;2023-07-31T07:23:31;1.75;;;0.90;;
47958;SDS011;33718;50.910;-1.514;2023-07-31T07:25:33;1.92;;;0.70;;
47958;SDS011;33718;50.910;-1.514;2023-07-31T07:27:37;2.67;;;0.95;;
47958;SDS011;33718;50.910;-1.514;2023-07-31T07:29:58;8.02;;;1.00;;
47958;SDS011;33718;50.910;-1.514;2023-07-31T07:32:06;7.32;;;1.45;;
47958;SDS011;33718;50.910;-1.514;2023-07-31T07:34:10;2.28;;;0.60;;
47958;SDS011;33718;50.910;-1.514;2023-07-31T07:36:12;3.10;;;0.60;;
47958;SDS011;33718;50.910;-1.514;2023-07-31T07:38:20;4.15;;;0.98;;
47958;SDS011;33718;50.910;-1.514;2023-07-31T07:40:41;2.17;;;1.10;;
47958;SDS011;33718;50.910;-1.514;2023-07-31T07:42:46;3.83;;;1.40;;
47958;SDS011;33718;50.910;-1.514;2023-07-31T07:44:52;2.60;;;0.77;;
47958;SDS011;33718;50.910;-1.514;2023-07-31T07:47:14;2.85;;;0.68;;
47958;SDS011;33718;50.910;-1.514;2023-07-31T07:49:21;4.63;;;1.08;;
47958;SDS011;33718;50.910;-1.514;2023-07-31T07:51:47;3.10;;;1.27;;
47958;SDS011;33718;50.910;-1.514;2023-07-31T07:53:51;3.53;;;0.85;;
47958;SDS011;33718;50.910;-1.514;2023-07-31T07:55:55;3.50;;;1.38;;
47958;SDS011;33718;50.910;-1.514;2023-07-31T07:58:01;4.43;;;1.10;;
47958;SDS011;33718;50.910;-1.514;2023-07-31T08:00:06;6.60;;;1.67;;
47958;SDS011;33718;50.910;-1.514;2023-07-31T08:02:12;4.20;;;1.27;;
47958;SDS011;33718;50.910;-1.514;2023-07-31T08:04:15;2.95;;;0.90;;
47958;SDS011;33718;50.910;-1.514;2023-07-31T08:06:24;2.90;;;1.00;;
47958;SDS011;33718;50.910;-1.514;2023-07-31T08:08:27;3.55;;;0.77;;
47958;SDS011;33718;50.910;-1.514;2023-07-31T08:12:36;3.08;;;0.95;;
47958;SDS011;33718;50.910;-1.514;2023-07-31T08:14:44;4.15;;;1.50;;
47958;SDS011;33718;50.910;-1.514;2023-07-31T08:16:48;3.70;;;1.08;;
47958;SDS011;33718;50.910;-1.514;2023-07-31T08:18:54;4.90;;;1.58;;
47958;SDS011;33718;50.910;-1.514;2023-07-31T08:21:03;4.18;;;1.48;;
47958;SDS011;33718;50.910;-1.514;2023-07-31T08:23:09;3.58;;;1.00;;
47958;SDS011;33718;50.910;-1.514;2023-07-31T08:25:14;7.20;;;1.00;;
47958;SDS011;33718;50.910;-1.514;2023-07-31T08:27:16;4.38;;;0.77;;
47958;SDS011;33718;50.910;-1.514;2023-07-31T08:29:20;2.90;;;0.70;;
47958;SDS011;33718;50.910;-1.514;2023-07-31T08:31:25;3.08;;;0.80;;
47958;SDS011;33718;50.910;-1.514;2023-07-31T08:33:27;3.70;;;1.13;;
47958;SDS011;33718;50.910;-1.514;2023-07-31T08:35:31;4.28;;;1.67;;
47958;SDS011;33718;50.910;-1.514;2023-07-31T08:37:35;6.82;;;1.00;;
47958;SDS011;33718;50.910;-1.514;2023-07-31T08:39:39;3.97;;;1.05;;
47958;SDS011;33718;50.910;-1.514;2023-07-31T08:41:42;5.67;;;1.23;;
47958;SDS011;33718;50.910;-1.514;2023-07-31T08:43:45;2.75;;;1.02;;
47958;SDS011;33718;50.910;-1.514;2023-07-31T08:45:47;7.20;;;1.17;;
47958;SDS011;33718;50.910;-1.514;2023-07-31T08:47:52;2.78;;;0.68;;
47958;SDS011;33718;50.910;-1.514;2023-07-31T08:49:56;4.57;;;1.50;;
47958;SDS011;33718;50.910;-1.514;2023-07-31T08:51:59;6.53;;;0.70;;
47958;SDS011;33718;50.910;-1.514;2023-07-31T08:54:01;3.25;;;0.80;;
47958;SDS011;33718;50.910;-1.514;2023-07-31T08:56:05;1.50;;;0.70;;
47958;SDS011;33718;50.910;-1.514;2023-07-31T08:58:09;7.50;;;0.85;;
47958;SDS011;33718;50.910;-1.514;2023-07-31T09:00:32;3.75;;;0.90;;
47958;SDS011;33718;50.910;-1.514;2023-07-31T09:04:57;3.40;;;0.70;;
47958;SDS011;33718;50.910;-1.514;2023-07-31T09:07:02;4.57;;;0.50;;
47958;SDS011;33718;50.910;-1.514;2023-07-31T09:09:05;1.65;;;0.63;;
47958;SDS011;33718;50.910;-1.514;2023-07-31T09:11:10;0.77;;;0.45;;
47958;SDS011;33718;50.910;-1.514;2023-07-31T09:13:30;3.17;;;0.90;;
47958;SDS011;33718;50.910;-1.514;2023-07-31T09:15:32;1.80;;;0.70;;
47958;SDS011;33718;50.910;-1.514;2023-07-31T09:17:38;2.20;;;0.45;;
47958;SDS011;33718;50.910;-1.514;2023-07-31T09:19:46;4.32;;;0.80;;
47958;SDS011;33718;50.910;-1.514;2023-07-31T09:21:48;1.33;;;0.60;;
47958;SDS011;33718;50.910;-1.514;2023-07-31T09:23:50;1.48;;;0.55;;
47958;SDS011;33718;50.910;-1.514;2023-07-31T09:25:58;2.35;;;0.60;;
47958;SDS011;33718;50.910;-1.514;2023-07-31T09:28:07;2.22;;;0.52;;
47958;SDS011;33718;50.910;-1.514;2023-07-31T09:30:28;0.60;;;0.40;;
47958;SDS011;33718;50.910;-1.514;2023-07-31T09:32:30;4.43;;;0.93;;
47958;SDS011;33718;50.910;-1.514;2023-07-31T09:34:38;3.05;;;0.68;;
47958;SDS011;33718;50.910;-1.514;2023-07-31T09:36:46;1.37;;;0.40;;
47958;SDS011;33718;50.910;-1.514;2023-07-31T09:38:51;2.53;;;0.50;;
47958;SDS011;33718;50.910;-1.514;2023-07-31T09:40:55;6.15;;;0.77;;
47958;SDS011;33718;50.910;-1.514;2023-07-31T09:43:04;4.15;;;0.68;;
47958;SDS011;33718;50.910;-1.514;2023-07-31T09:45:09;2.40;;;0.90;;
47958;SDS011;33718;50.910;-1.514;2023-07-31T09:47:23;2.70;;;0.65;;
47958;SDS011;33718;50.910;-1.514;2023-07-31T09:49:31;4.13;;;0.80;;
47958;SDS011;33718;50.910;-1.514;2023-07-31T09:51:36;3.65;;;0.95;;
47958;SDS011;33718;50.910;-1.514;2023-07-31T09:53:39;2.40;;;0.77;;
47958;SDS011;33718;50.910;-1.514;2023-07-31T09:55:44;2.47;;;0.68;;
47958;SDS011;33718;50.910;-1.514;2023-07-31T09:57:48;2.65;;;0.75;;
47958;SDS011;33718;50.910;-1.514;2023-07-31T09:59:53;0.80;;;0.70;;
47958;SDS011;33718;50.910;-1.514;2023-07-31T10:01:56;2.80;;;0.67;;
47958;SDS011;33718;50.910;-1.514;2023-07-31T10:04:00;3.67;;;1.45;;
47958;SDS011;33718;50.910;-1.514;2023-07-31T10:06:05;2.92;;;0.68;;
47958;SDS011;33718;50.910;-1.514;2023-07-31T10:08:12;1.08;;;0.55;;
47958;SDS011;33718;50.910;-1.514;2023-07-31T10:10:15;1.83;;;0.60;;
47958;SDS011;33718;50.910;-1.514;2023-07-31T10:12:20;1.85;;;0.70;;
47958;SDS011;33718;50.910;-1.514;2023-07-31T10:14:26;2.45;;;0.60;;
47958;SDS011;33718;50.910;-1.514;2023-07-31T10:16:32;3.92;;;0.70;;
47958;SDS011;33718;50.910;-1.514;2023-07-31T10:18:33;2.45;;;0.63;;
47958;SDS011;33718;50.910;-1.514;2023-07-31T10:20:36;3.17;;;0.90;;
47958;SDS011;33718;50.910;-1.514;2023-07-31T10:22:38;2.38;;;1.30;;
47958;SDS011;33718;50.910;-1.514;2023-07-31T10:24:43;8.50;;;1.50;;
47958;SDS011;33718;50.910;-1.514;2023-07-31T10:26:45;5.45;;;1.73;;
47958;SDS011;33718;50.910;-1.514;2023-07-31T10:28:47;6.47;;;1.55;;
47958;SDS011;33718;50.910;-1.514;2023-07-31T10:30:49;3.47;;;1.15;;
47958;SDS011;33718;50.910;-1.514;2023-07-31T10:33:11;2.38;;;0.98;;
47958;SDS011;33718;50.910;-1.514;2023-07-31T10:35:12;1.67;;;0.70;;
47958;SDS011;33718;50.910;-1.514;2023-07-31T10:39:36;2.95;;;0.82;;
47958;SDS011;33718;50.910;-1.514;2023-07-31T10:41:40;4.82;;;0.70;;
47958;SDS011;33718;50.910;-1.514;2023-07-31T10:43:47;2.75;;;0.57;;
47958;SDS011;33718;50.910;-1.514;2023-07-31T10:45:48;3.47;;;0.70;;
47958;SDS011;33718;50.910;-1.514;2023-07-31T10:47:51;6.13;;;1.92;;
47958;SDS011;33718;50.910;-1.514;2023-07-31T10:50:13;3.38;;;1.73;;
47958;SDS011;33718;50.910;-1.514;2023-07-31T10:52:27;7.50;;;3.17;;
47958;SDS011;33718;50.910;-1.514;2023-07-31T10:54:46;5.95;;;3.10;;
47958;SDS011;33718;50.910;-1.514;2023-07-31T10:57:02;5.22;;;3.30;;
47958;SDS011;33718;50.910;-1.514;2023-07-31T10:59:12;6.05;;;4.35;;
47958;SDS011;33718;50.910;-1.514;2023-07-31T11:01:21;6.95;;;2.63;;
47958;SDS011;33718;50.910;-1.514;2023-07-31T11:03:42;4.18;;;1.70;;
47958;SDS011;33718;50.910;-1.514;2023-07-31T11:08:29;2.28;;;0.90;;
47958;SDS011;33718;50.910;-1.514;2023-07-31T11:10:51;5.82;;;1.42;;
47958;SDS011;33718;50.910;-1.514;2023-07-31T11:13:06;4.38;;;2.35;;
47958;SDS011;33718;50.910;-1.514;2023-07-31T11:15:10;6.82;;;4.28;;
47958;SDS011;33718;50.910;-1.514;2023-07-31T11:17:17;3.88;;;2.40;;
47958;SDS011;33718;50.910;-1.514;2023-07-31T11:19:27;6.50;;;1.23;;
47958;SDS011;33718;50.910;-1.514;2023-07-31T11:21:37;3.53;;;1.90;;
47958;SDS011;33718;50.910;-1.514;2023-07-31T11:23:46;5.07;;;2.50;;
47958;SDS011;33718;50.910;-1.514;2023-07-31T11:26:00;2.17;;;1.55;;
47958;SDS011;33718;50.910;-1.514;2023-07-31T11:28:04;3.63;;;2.22;;
47958;SDS011;33718;50.910;-1.514;2023-07-31T11:30:06;4.35;;;2.88;;
47958;SDS011;33718;50.910;-1.514;2023-07-31T11:32:17;6.93;;;4.75;;
47958;SDS011;33718;50.910;-1.514;2023-07-31T11:34:22;11.07;;;8.13;;
47958;SDS011;33718;50.910;-1.514;2023-07-31T11:36:26;6.72;;;5.72;;
47958;SDS011;33718;50.910;-1.514;2023-07-31T11:38:29;4.15;;;3.75;;
47958;SDS011;33718;50.910;-1.514;2023-07-31T11:40:31;7.47;;;5.10;;
47958;SDS011;33718;50.910;-1.514;2023-07-31T11:42:42;5.00;;;3.13;;
47958;SDS011;33718;50.910;-1.514;2023-07-31T11:44:48;3.13;;;2.53;;
47958;SDS011;33718;50.910;-1.514;2023-07-31T11:46:49;8.77;;;2.25;;
47958;SDS011;33718;50.910;-1.514;2023-07-31T11:48:55;5.28;;;2.03;;
47958;SDS011;33718;50.910;-1.514;2023-07-31T11:51:00;5.40;;;1.67;;
47958;SDS011;33718;50.910;-1.514;2023-07-31T11:53:03;4.78;;;2.00;;
47958;SDS011;33718;50.910;-1.514;2023-07-31T11:55:09;2.60;;;1.48;;
47958;SDS011;33718;50.910;-1.514;2023-07-31T11:57:13;4.72;;;1.67;;
47958;SDS011;33718;50.910;-1.514;2023-07-31T11:59:18;5.18;;;1.50;;
47958;SDS011;33718;50.910;-1.514;2023-07-31T12:01:20;2.40;;;1.58;;
47958;SDS011;33718;50.910;-1.514;2023-07-31T12:03:22;7.40;;;1.80;;
47958;SDS011;33718;50.910;-1.514;2023-07-31T12:05:42;7.45;;;2.15;;
47958;SDS011;33718;50.910;-1.514;2023-07-31T12:09:52;7.72;;;1.98;;
47958;SDS011;33718;50.910;-1.514;2023-07-31T12:11:54;4.90;;;2.03;;
47958;SDS011;33718;50.910;-1.514;2023-07-31T12:13:58;5.03;;;2.15;;
47958;SDS011;33718;50.910;-1.514;2023-07-31T12:16:04;7.25;;;2.08;;
47958;SDS011;33718;50.910;-1.514;2023-07-31T12:18:06;6.07;;;1.90;;
47958;SDS011;33718;50.910;-1.514;2023-07-31T12:20:11;2.25;;;1.45;;
47958;SDS011;33718;50.910;-1.514;2023-07-31T12:22:14;4.40;;;1.13;;
47958;SDS011;33718;50.910;-1.514;2023-07-31T12:24:17;4.10;;;1.65;;
47958;SDS011;33718;50.910;-1.514;2023-07-31T12:26:38;2.78;;;1.73;;
47958;SDS011;33718;50.910;-1.514;2023-07-31T12:28:49;3.60;;;1.33;;
47958;SDS011;33718;50.910;-1.514;2023-07-31T12:30:56;4.80;;;1.63;;
47958;SDS011;33718;50.910;-1.514;2023-07-31T12:33:02;4.55;;;1.70;;
47958;SDS011;33718;50.910;-1.514;2023-07-31T12:35:07;3.85;;;1.60;;
47958;SDS011;33718;50.910;-1.514;2023-07-31T12:37:28;3.15;;;1.65;;
47958;SDS011;33718;50.910;-1.514;2023-07-31T12:39:30;4.63;;;1.50;;
47958;SDS011;33718;50.910;-1.514;2023-07-31T12:41:34;3.70;;;1.70;;